Главная страница
METAR-TAF:

METAR-TAF

Аэропорты :

Ботсфьорд, Норвегия

широта: 70-38N, долгота: 029-44E, высота над уровнем моря: 10 м

Текущие метеонаблюдения

Эта сводка был подготовлена 4 часа и 21 минут назад, в 20:50 UTC
Ветер 12 Узел от южный
Температура 4°C
Влажность 87%
Давление 1007 hPa
Видимость 10 км и более
небольшая облачность на высоте 3600 фута

METAR: ENBS 152050Z 18012KT 9999 FEW036 04/02 Q1007

Время: 03:11 (01:11 UTC)


TAF: отсутствует

Метеонаблюдения и прогнозы для более 4000 аэропортов (сводки METAR и TAF).

Имеющиеся станции представлены на карте желтыми и красными точками.

Чтобы увидеть название станции, наведите на нее мышь.

Затем щелкните, чтобы увидеть метеонаблюдения и метеопрогнозы.

Управление картой: чтобы увеличить масштаб, щелкните зеленые кнопки с черным крестиком; чтобы уменьшить масштаб, щелкните зеленую кнопку с тире; для просмотра соседних карт щелкайте зеленые стрелки.


METAR-TAF: